sensor_id;sensor_type;location;lat;lon;timestamp;P1;durP1;ratioP1;P2;durP2;ratioP2
5058;SDS011;2548;52.050;11.036;2023-03-01T00:01:00;8.93;;;6.95;;
5058;SDS011;2548;52.050;11.036;2023-03-01T00:03:28;9.85;;;6.82;;
5058;SDS011;2548;52.050;11.036;2023-03-01T00:05:56;10.60;;;6.95;;
5058;SDS011;2548;52.050;11.036;2023-03-01T00:08:25;10.27;;;7.88;;
5058;SDS011;2548;52.050;11.036;2023-03-01T00:10:59;8.73;;;6.80;;
5058;SDS011;2548;52.050;11.036;2023-03-01T00:13:28;9.43;;;8.35;;
5058;SDS011;2548;52.050;11.036;2023-03-01T00:15:55;12.50;;;7.47;;
5058;SDS011;2548;52.050;11.036;2023-03-01T00:18:23;9.88;;;7.43;;
5058;SDS011;2548;52.050;11.036;2023-03-01T00:20:50;20.40;;;7.45;;
5058;SDS011;2548;52.050;11.036;2023-03-01T00:23:18;11.55;;;7.25;;
5058;SDS011;2548;52.050;11.036;2023-03-01T00:25:47;11.35;;;8.77;;
5058;SDS011;2548;52.050;11.036;2023-03-01T00:28:15;11.68;;;8.23;;
5058;SDS011;2548;52.050;11.036;2023-03-01T00:30:43;10.68;;;8.45;;
5058;SDS011;2548;52.050;11.036;2023-03-01T00:33:10;9.32;;;6.28;;
5058;SDS011;2548;52.050;11.036;2023-03-01T00:35:38;10.73;;;8.70;;
5058;SDS011;2548;52.050;11.036;2023-03-01T00:38:06;8.98;;;6.60;;
5058;SDS011;2548;52.050;11.036;2023-03-01T00:40:35;9.20;;;7.20;;
5058;SDS011;2548;52.050;11.036;2023-03-01T00:43:04;8.63;;;7.00;;
5058;SDS011;2548;52.050;11.036;2023-03-01T00:45:32;9.45;;;6.70;;
5058;SDS011;2548;52.050;11.036;2023-03-01T00:47:59;10.93;;;8.02;;
5058;SDS011;2548;52.050;11.036;2023-03-01T00:50:27;9.95;;;8.30;;
5058;SDS011;2548;52.050;11.036;2023-03-01T00:52:55;14.57;;;9.00;;
5058;SDS011;2548;52.050;11.036;2023-03-01T00:55:23;10.02;;;7.72;;
5058;SDS011;2548;52.050;11.036;2023-03-01T00:57:51;9.07;;;7.75;;
5058;SDS011;2548;52.050;11.036;2023-03-01T01:00:20;9.40;;;7.35;;
5058;SDS011;2548;52.050;11.036;2023-03-01T01:02:48;10.88;;;8.43;;
5058;SDS011;2548;52.050;11.036;2023-03-01T01:05:16;12.50;;;7.97;;
5058;SDS011;2548;52.050;11.036;2023-03-01T01:07:46;12.27;;;7.50;;
5058;SDS011;2548;52.050;11.036;2023-03-01T01:10:14;9.13;;;7.63;;
5058;SDS011;2548;52.050;11.036;2023-03-01T01:12:43;15.50;;;7.85;;
5058;SDS011;2548;52.050;11.036;2023-03-01T01:15:11;12.35;;;8.80;;
5058;SDS011;2548;52.050;11.036;2023-03-01T01:17:43;13.95;;;9.27;;
5058;SDS011;2548;52.050;11.036;2023-03-01T01:20:11;12.25;;;9.20;;
5058;SDS011;2548;52.050;11.036;2023-03-01T01:22:39;12.55;;;7.97;;
5058;SDS011;2548;52.050;11.036;2023-03-01T01:25:06;10.02;;;7.72;;
5058;SDS011;2548;52.050;11.036;2023-03-01T01:27:34;19.65;;;7.22;;
5058;SDS011;2548;52.050;11.036;2023-03-01T01:30:02;7.22;;;6.47;;
5058;SDS011;2548;52.050;11.036;2023-03-01T01:32:30;10.63;;;6.80;;
5058;SDS011;2548;52.050;11.036;2023-03-01T01:34:59;11.50;;;8.25;;
5058;SDS011;2548;52.050;11.036;2023-03-01T01:37:27;9.43;;;7.03;;
5058;SDS011;2548;52.050;11.036;2023-03-01T01:39:57;9.05;;;6.72;;
5058;SDS011;2548;52.050;11.036;2023-03-01T01:42:25;16.98;;;6.97;;
5058;SDS011;2548;52.050;11.036;2023-03-01T01:47:53;14.27;;;9.05;;
5058;SDS011;2548;52.050;11.036;2023-03-01T01:50:24;17.77;;;9.00;;
5058;SDS011;2548;52.050;11.036;2023-03-01T01:52:52;10.88;;;6.43;;
5058;SDS011;2548;52.050;11.036;2023-03-01T01:55:21;8.65;;;7.10;;
5058;SDS011;2548;52.050;11.036;2023-03-01T01:57:54;15.52;;;8.00;;
5058;SDS011;2548;52.050;11.036;2023-03-01T02:00:26;11.98;;;7.88;;
5058;SDS011;2548;52.050;11.036;2023-03-01T02:02:56;10.43;;;7.55;;
5058;SDS011;2548;52.050;11.036;2023-03-01T02:05:29;13.52;;;7.20;;
5058;SDS011;2548;52.050;11.036;2023-03-01T02:08:03;8.30;;;7.05;;
5058;SDS011;2548;52.050;11.036;2023-03-01T02:10:31;10.45;;;8.05;;
5058;SDS011;2548;52.050;11.036;2023-03-01T02:13:00;8.65;;;7.50;;
5058;SDS011;2548;52.050;11.036;2023-03-01T02:15:31;9.95;;;7.15;;
5058;SDS011;2548;52.050;11.036;2023-03-01T02:17:59;11.52;;;7.43;;
5058;SDS011;2548;52.050;11.036;2023-03-01T02:20:32;8.50;;;7.50;;
5058;SDS011;2548;52.050;11.036;2023-03-01T02:23:06;11.35;;;8.80;;
5058;SDS011;2548;52.050;11.036;2023-03-01T02:25:37;12.07;;;7.40;;
5058;SDS011;2548;52.050;11.036;2023-03-01T02:28:20;11.05;;;8.32;;
5058;SDS011;2548;52.050;11.036;2023-03-01T02:30:50;12.27;;;8.18;;
5058;SDS011;2548;52.050;11.036;2023-03-01T02:33:37;15.70;;;9.30;;
5058;SDS011;2548;52.050;11.036;2023-03-01T02:36:06;14.52;;;9.20;;
5058;SDS011;2548;52.050;11.036;2023-03-01T02:38:40;12.60;;;8.70;;
5058;SDS011;2548;52.050;11.036;2023-03-01T02:41:07;14.63;;;9.20;;
5058;SDS011;2548;52.050;11.036;2023-03-01T02:43:39;12.55;;;9.40;;
5058;SDS011;2548;52.050;11.036;2023-03-01T02:46:08;13.27;;;9.38;;
5058;SDS011;2548;52.050;11.036;2023-03-01T02:48:42;18.70;;;9.23;;
5058;SDS011;2548;52.050;11.036;2023-03-01T02:51:16;14.15;;;9.40;;
5058;SDS011;2548;52.050;11.036;2023-03-01T02:53:54;12.82;;;8.10;;
5058;SDS011;2548;52.050;11.036;2023-03-01T02:56:28;10.80;;;8.23;;
5058;SDS011;2548;52.050;11.036;2023-03-01T02:58:57;11.88;;;8.15;;
5058;SDS011;2548;52.050;11.036;2023-03-01T03:01:28;11.52;;;7.55;;
5058;SDS011;2548;52.050;11.036;2023-03-01T03:04:04;12.05;;;8.30;;
5058;SDS011;2548;52.050;11.036;2023-03-01T03:06:32;10.70;;;7.78;;
5058;SDS011;2548;52.050;11.036;2023-03-01T03:09:00;10.13;;;7.75;;
5058;SDS011;2548;52.050;11.036;2023-03-01T03:11:28;11.45;;;8.15;;
5058;SDS011;2548;52.050;11.036;2023-03-01T03:13:57;12.27;;;7.43;;
5058;SDS011;2548;52.050;11.036;2023-03-01T03:16:25;14.32;;;8.68;;
5058;SDS011;2548;52.050;11.036;2023-03-01T03:18:52;8.45;;;7.43;;
5058;SDS011;2548;52.050;11.036;2023-03-01T03:21:20;12.02;;;8.57;;
5058;SDS011;2548;52.050;11.036;2023-03-01T03:23:47;13.38;;;8.40;;
5058;SDS011;2548;52.050;11.036;2023-03-01T03:26:15;10.02;;;7.95;;
5058;SDS011;2548;52.050;11.036;2023-03-01T03:28:42;10.52;;;7.70;;
5058;SDS011;2548;52.050;11.036;2023-03-01T03:31:11;19.50;;;9.85;;
5058;SDS011;2548;52.050;11.036;2023-03-01T03:33:38;13.95;;;9.40;;
5058;SDS011;2548;52.050;11.036;2023-03-01T03:36:06;10.95;;;8.32;;
5058;SDS011;2548;52.050;11.036;2023-03-01T03:38:38;11.57;;;8.85;;
5058;SDS011;2548;52.050;11.036;2023-03-01T03:41:07;12.38;;;8.88;;
5058;SDS011;2548;52.050;11.036;2023-03-01T03:43:36;14.73;;;9.25;;
5058;SDS011;2548;52.050;11.036;2023-03-01T03:46:04;10.95;;;7.47;;
5058;SDS011;2548;52.050;11.036;2023-03-01T03:48:34;9.93;;;7.93;;
5058;SDS011;2548;52.050;11.036;2023-03-01T03:51:02;12.57;;;8.27;;
5058;SDS011;2548;52.050;11.036;2023-03-01T03:53:31;10.88;;;7.63;;
5058;SDS011;2548;52.050;11.036;2023-03-01T03:55:59;13.20;;;7.25;;
5058;SDS011;2548;52.050;11.036;2023-03-01T03:58:26;11.13;;;7.88;;
5058;SDS011;2548;52.050;11.036;2023-03-01T04:00:54;10.63;;;8.02;;
5058;SDS011;2548;52.050;11.036;2023-03-01T04:03:23;10.85;;;7.07;;
5058;SDS011;2548;52.050;11.036;2023-03-01T04:05:53;9.35;;;6.85;;
5058;SDS011;2548;52.050;11.036;2023-03-01T04:08:23;13.75;;;9.38;;
5058;SDS011;2548;52.050;11.036;2023-03-01T04:10:52;11.38;;;7.53;;
5058;SDS011;2548;52.050;11.036;2023-03-01T04:13:23;14.30;;;8.93;;
5058;SDS011;2548;52.050;11.036;2023-03-01T04:15:51;10.32;;;8.23;;
5058;SDS011;2548;52.050;11.036;2023-03-01T04:18:20;12.63;;;8.15;;
5058;SDS011;2548;52.050;11.036;2023-03-01T04:20:49;13.25;;;8.52;;
5058;SDS011;2548;52.050;11.036;2023-03-01T04:23:19;12.88;;;9.13;;
5058;SDS011;2548;52.050;11.036;2023-03-01T04:25:48;10.82;;;8.38;;
5058;SDS011;2548;52.050;11.036;2023-03-01T04:28:19;14.57;;;8.15;;
5058;SDS011;2548;52.050;11.036;2023-03-01T04:30:47;13.32;;;8.40;;
5058;SDS011;2548;52.050;11.036;2023-03-01T04:33:14;13.25;;;9.00;;
5058;SDS011;2548;52.050;11.036;2023-03-01T04:35:42;12.57;;;7.68;;
5058;SDS011;2548;52.050;11.036;2023-03-01T04:38:09;12.93;;;7.70;;
5058;SDS011;2548;52.050;11.036;2023-03-01T04:40:38;13.30;;;9.43;;
5058;SDS011;2548;52.050;11.036;2023-03-01T04:43:08;11.73;;;8.57;;
5058;SDS011;2548;52.050;11.036;2023-03-01T04:45:36;14.45;;;9.35;;
5058;SDS011;2548;52.050;11.036;2023-03-01T04:48:04;13.57;;;8.38;;
5058;SDS011;2548;52.050;11.036;2023-03-01T04:50:31;13.27;;;9.38;;
5058;SDS011;2548;52.050;11.036;2023-03-01T04:52:59;13.43;;;9.02;;
5058;SDS011;2548;52.050;11.036;2023-03-01T04:55:27;18.08;;;8.75;;
5058;SDS011;2548;52.050;11.036;2023-03-01T04:57:56;11.77;;;8.88;;
5058;SDS011;2548;52.050;11.036;2023-03-01T05:00:24;15.27;;;9.60;;
5058;SDS011;2548;52.050;11.036;2023-03-01T05:02:52;15.30;;;8.55;;
5058;SDS011;2548;52.050;11.036;2023-03-01T05:05:22;12.73;;;9.68;;
5058;SDS011;2548;52.050;11.036;2023-03-01T05:07:52;13.27;;;9.10;;
5058;SDS011;2548;52.050;11.036;2023-03-01T05:10:20;19.45;;;10.00;;
5058;SDS011;2548;52.050;11.036;2023-03-01T05:12:48;64.07;;;10.10;;
5058;SDS011;2548;52.050;11.036;2023-03-01T05:15:17;15.07;;;9.13;;
5058;SDS011;2548;52.050;11.036;2023-03-01T05:17:44;16.77;;;9.45;;
5058;SDS011;2548;52.050;11.036;2023-03-01T05:20:12;15.73;;;9.85;;
5058;SDS011;2548;52.050;11.036;2023-03-01T05:22:40;13.25;;;9.75;;
5058;SDS011;2548;52.050;11.036;2023-03-01T05:25:07;14.15;;;10.10;;
5058;SDS011;2548;52.050;11.036;2023-03-01T05:27:35;16.88;;;10.10;;
5058;SDS011;2548;52.050;11.036;2023-03-01T05:30:03;17.58;;;9.98;;
5058;SDS011;2548;52.050;11.036;2023-03-01T05:32:41;18.80;;;10.15;;
5058;SDS011;2548;52.050;11.036;2023-03-01T05:35:10;13.82;;;10.00;;
5058;SDS011;2548;52.050;11.036;2023-03-01T05:37:40;14.15;;;9.55;;
5058;SDS011;2548;52.050;11.036;2023-03-01T05:40:09;13.38;;;9.32;;
5058;SDS011;2548;52.050;11.036;2023-03-01T05:42:42;16.52;;;11.10;;
5058;SDS011;2548;52.050;11.036;2023-03-01T05:45:10;20.35;;;12.02;;
5058;SDS011;2548;52.050;11.036;2023-03-01T05:47:41;16.05;;;10.30;;
5058;SDS011;2548;52.050;11.036;2023-03-01T05:50:10;19.40;;;10.57;;
5058;SDS011;2548;52.050;11.036;2023-03-01T05:52:39;17.58;;;11.10;;
5058;SDS011;2548;52.050;11.036;2023-03-01T05:55:07;15.75;;;10.52;;
5058;SDS011;2548;52.050;11.036;2023-03-01T05:57:35;19.75;;;11.18;;
5058;SDS011;2548;52.050;11.036;2023-03-01T06:00:03;15.43;;;10.48;;
5058;SDS011;2548;52.050;11.036;2023-03-01T06:02:38;15.63;;;9.70;;
5058;SDS011;2548;52.050;11.036;2023-03-01T06:05:08;20.10;;;10.70;;
5058;SDS011;2548;52.050;11.036;2023-03-01T06:07:36;19.73;;;10.80;;
5058;SDS011;2548;52.050;11.036;2023-03-01T06:10:05;17.75;;;11.70;;
5058;SDS011;2548;52.050;11.036;2023-03-01T06:12:34;17.77;;;11.00;;
5058;SDS011;2548;52.050;11.036;2023-03-01T06:15:03;14.52;;;11.10;;
5058;SDS011;2548;52.050;11.036;2023-03-01T06:17:32;14.85;;;10.60;;
5058;SDS011;2548;52.050;11.036;2023-03-01T06:20:03;17.02;;;10.90;;
5058;SDS011;2548;52.050;11.036;2023-03-01T06:22:33;15.68;;;9.70;;
5058;SDS011;2548;52.050;11.036;2023-03-01T06:25:00;9.23;;;8.10;;
5058;SDS011;2548;52.050;11.036;2023-03-01T06:27:28;14.38;;;10.13;;
5058;SDS011;2548;52.050;11.036;2023-03-01T06:29:55;14.98;;;9.90;;
5058;SDS011;2548;52.050;11.036;2023-03-01T06:32:23;16.75;;;10.82;;
5058;SDS011;2548;52.050;11.036;2023-03-01T06:34:50;13.88;;;10.32;;
5058;SDS011;2548;52.050;11.036;2023-03-01T06:37:18;14.02;;;10.20;;
5058;SDS011;2548;52.050;11.036;2023-03-01T06:39:47;17.05;;;10.15;;
5058;SDS011;2548;52.050;11.036;2023-03-01T06:42:14;20.48;;;10.68;;
5058;SDS011;2548;52.050;11.036;2023-03-01T06:44:42;16.33;;;10.38;;
5058;SDS011;2548;52.050;11.036;2023-03-01T06:47:11;16.73;;;10.48;;
5058;SDS011;2548;52.050;11.036;2023-03-01T06:49:39;13.95;;;10.25;;
5058;SDS011;2548;52.050;11.036;2023-03-01T06:52:06;12.18;;;9.25;;
5058;SDS011;2548;52.050;11.036;2023-03-01T06:54:33;15.80;;;9.77;;
5058;SDS011;2548;52.050;11.036;2023-03-01T06:57:02;12.65;;;9.27;;
5058;SDS011;2548;52.050;11.036;2023-03-01T06:59:30;19.00;;;11.77;;
5058;SDS011;2548;52.050;11.036;2023-03-01T07:01:57;16.00;;;10.15;;
5058;SDS011;2548;52.050;11.036;2023-03-01T07:04:25;20.05;;;11.55;;
5058;SDS011;2548;52.050;11.036;2023-03-01T07:06:54;17.08;;;10.57;;
5058;SDS011;2548;52.050;11.036;2023-03-01T07:09:21;19.27;;;10.18;;
5058;SDS011;2548;52.050;11.036;2023-03-01T07:11:49;11.85;;;9.55;;
5058;SDS011;2548;52.050;11.036;2023-03-01T07:14:18;15.90;;;10.23;;
5058;SDS011;2548;52.050;11.036;2023-03-01T07:16:46;24.98;;;12.02;;
5058;SDS011;2548;52.050;11.036;2023-03-01T07:19:13;16.85;;;11.07;;
5058;SDS011;2548;52.050;11.036;2023-03-01T07:21:41;15.45;;;11.32;;
5058;SDS011;2548;52.050;11.036;2023-03-01T07:24:08;16.50;;;10.93;;
5058;SDS011;2548;52.050;11.036;2023-03-01T07:26:36;27.52;;;17.98;;
5058;SDS011;2548;52.050;11.036;2023-03-01T07:29:05;27.63;;;16.35;;
5058;SDS011;2548;52.050;11.036;2023-03-01T07:31:35;18.75;;;11.43;;
5058;SDS011;2548;52.050;11.036;2023-03-01T07:34:03;16.85;;;11.60;;
5058;SDS011;2548;52.050;11.036;2023-03-01T07:36:30;17.45;;;12.07;;
5058;SDS011;2548;52.050;11.036;2023-03-01T07:38:58;16.38;;;10.07;;
5058;SDS011;2548;52.050;11.036;2023-03-01T07:41:28;15.93;;;11.45;;
5058;SDS011;2548;52.050;11.036;2023-03-01T07:43:55;17.63;;;10.48;;
5058;SDS011;2548;52.050;11.036;2023-03-01T07:46:23;14.57;;;10.10;;
5058;SDS011;2548;52.050;11.036;2023-03-01T07:48:51;15.30;;;10.52;;
5058;SDS011;2548;52.050;11.036;2023-03-01T07:51:19;20.88;;;13.20;;
5058;SDS011;2548;52.050;11.036;2023-03-01T07:53:47;17.27;;;11.02;;
5058;SDS011;2548;52.050;11.036;2023-03-01T07:56:14;14.85;;;10.57;;
5058;SDS011;2548;52.050;11.036;2023-03-01T07:58:44;18.80;;;11.77;;
5058;SDS011;2548;52.050;11.036;2023-03-01T08:01:13;15.00;;;9.60;;
5058;SDS011;2548;52.050;11.036;2023-03-01T08:03:41;23.52;;;12.23;;
5058;SDS011;2548;52.050;11.036;2023-03-01T08:06:11;15.50;;;10.90;;
5058;SDS011;2548;52.050;11.036;2023-03-01T08:08:39;12.60;;;10.35;;
5058;SDS011;2548;52.050;11.036;2023-03-01T08:11:07;19.48;;;11.05;;
5058;SDS011;2548;52.050;11.036;2023-03-01T08:13:38;13.05;;;10.93;;
5058;SDS011;2548;52.050;11.036;2023-03-01T08:16:06;16.75;;;11.05;;
5058;SDS011;2548;52.050;11.036;2023-03-01T08:18:35;13.30;;;8.88;;
5058;SDS011;2548;52.050;11.036;2023-03-01T08:21:03;12.43;;;9.40;;
5058;SDS011;2548;52.050;11.036;2023-03-01T08:23:32;14.20;;;10.55;;
5058;SDS011;2548;52.050;11.036;2023-03-01T08:26:04;15.90;;;11.52;;
5058;SDS011;2548;52.050;11.036;2023-03-01T08:28:33;14.82;;;10.32;;
5058;SDS011;2548;52.050;11.036;2023-03-01T08:31:01;14.55;;;10.25;;
5058;SDS011;2548;52.050;11.036;2023-03-01T08:33:28;12.68;;;10.20;;
5058;SDS011;2548;52.050;11.036;2023-03-01T08:36:03;14.98;;;8.90;;
5058;SDS011;2548;52.050;11.036;2023-03-01T08:38:34;14.90;;;9.93;;
5058;SDS011;2548;52.050;11.036;2023-03-01T08:41:01;16.45;;;9.20;;
5058;SDS011;2548;52.050;11.036;2023-03-01T08:43:30;12.30;;;9.65;;
5058;SDS011;2548;52.050;11.036;2023-03-01T08:45:58;10.13;;;8.55;;
5058;SDS011;2548;52.050;11.036;2023-03-01T08:48:27;10.18;;;8.85;;
5058;SDS011;2548;52.050;11.036;2023-03-01T08:50:55;16.75;;;9.15;;
5058;SDS011;2548;52.050;11.036;2023-03-01T08:53:22;13.10;;;10.43;;
5058;SDS011;2548;52.050;11.036;2023-03-01T08:55:51;16.75;;;10.07;;
5058;SDS011;2548;52.050;11.036;2023-03-01T08:58:19;21.40;;;9.38;;
5058;SDS011;2548;52.050;11.036;2023-03-01T09:00:46;13.20;;;9.35;;
5058;SDS011;2548;52.050;11.036;2023-03-01T09:03:13;13.55;;;10.02;;
5058;SDS011;2548;52.050;11.036;2023-03-01T09:05:41;16.58;;;9.75;;
5058;SDS011;2548;52.050;11.036;2023-03-01T09:08:11;14.38;;;10.13;;
5058;SDS011;2548;52.050;11.036;2023-03-01T09:10:38;11.85;;;8.65;;
5058;SDS011;2548;52.050;11.036;2023-03-01T09:13:07;12.23;;;7.72;;
5058;SDS011;2548;52.050;11.036;2023-03-01T09:15:36;40.28;;;20.70;;
5058;SDS011;2548;52.050;11.036;2023-03-01T09:18:03;13.57;;;9.70;;
5058;SDS011;2548;52.050;11.036;2023-03-01T09:20:31;10.20;;;8.90;;
5058;SDS011;2548;52.050;11.036;2023-03-01T09:22:59;13.80;;;8.55;;
5058;SDS011;2548;52.050;11.036;2023-03-01T09:25:27;38.17;;;16.73;;
5058;SDS011;2548;52.050;11.036;2023-03-01T09:27:54;29.00;;;13.52;;
5058;SDS011;2548;52.050;11.036;2023-03-01T09:30:23;44.40;;;19.15;;
5058;SDS011;2548;52.050;11.036;2023-03-01T09:32:51;83.35;;;31.88;;
5058;SDS011;2548;52.050;11.036;2023-03-01T09:35:18;18.00;;;9.40;;
5058;SDS011;2548;52.050;11.036;2023-03-01T09:37:48;11.57;;;7.47;;
5058;SDS011;2548;52.050;11.036;2023-03-01T09:40:16;18.85;;;11.15;;
5058;SDS011;2548;52.050;11.036;2023-03-01T09:42:46;11.88;;;8.38;;
5058;SDS011;2548;52.050;11.036;2023-03-01T09:45:22;13.32;;;8.15;;
5058;SDS011;2548;52.050;11.036;2023-03-01T09:47:55;11.32;;;8.10;;
5058;SDS011;2548;52.050;11.036;2023-03-01T09:50:32;12.68;;;8.10;;
5058;SDS011;2548;52.050;11.036;2023-03-01T09:53:02;11.13;;;8.00;;
5058;SDS011;2548;52.050;11.036;2023-03-01T09:55:33;18.63;;;11.38;;
5058;SDS011;2548;52.050;11.036;2023-03-01T09:58:08;13.63;;;8.15;;
5058;SDS011;2548;52.050;11.036;2023-03-01T10:00:56;10.07;;;7.38;;
5058;SDS011;2548;52.050;11.036;2023-03-01T10:03:26;8.95;;;7.03;;
5058;SDS011;2548;52.050;11.036;2023-03-01T10:06:01;7.10;;;6.20;;
5058;SDS011;2548;52.050;11.036;2023-03-01T10:08:36;10.60;;;7.85;;
5058;SDS011;2548;52.050;11.036;2023-03-01T10:11:15;11.93;;;6.15;;
5058;SDS011;2548;52.050;11.036;2023-03-01T10:13:48;9.90;;;6.63;;
5058;SDS011;2548;52.050;11.036;2023-03-01T10:16:23;8.13;;;6.65;;
5058;SDS011;2548;52.050;11.036;2023-03-01T10:18:56;9.55;;;7.30;;
5058;SDS011;2548;52.050;11.036;2023-03-01T10:21:27;9.95;;;6.90;;
5058;SDS011;2548;52.050;11.036;2023-03-01T10:23:57;16.40;;;8.73;;
5058;SDS011;2548;52.050;11.036;2023-03-01T10:26:40;10.32;;;7.22;;
5058;SDS011;2548;52.050;11.036;2023-03-01T10:29:13;9.45;;;6.30;;
5058;SDS011;2548;52.050;11.036;2023-03-01T10:31:43;9.88;;;7.80;;
5058;SDS011;2548;52.050;11.036;2023-03-01T10:34:13;8.77;;;6.25;;
5058;SDS011;2548;52.050;11.036;2023-03-01T10:36:43;11.02;;;7.05;;
5058;SDS011;2548;52.050;11.036;2023-03-01T10:39:15;11.32;;;6.95;;
5058;SDS011;2548;52.050;11.036;2023-03-01T10:41:54;9.27;;;7.15;;
5058;SDS011;2548;52.050;11.036;2023-03-01T10:44:41;10.15;;;7.28;;
5058;SDS011;2548;52.050;11.036;2023-03-01T10:47:16;11.23;;;6.60;;
5058;SDS011;2548;52.050;11.036;2023-03-01T10:49:57;10.15;;;7.10;;
5058;SDS011;2548;52.050;11.036;2023-03-01T10:52:30;9.07;;;7.05;;
5058;SDS011;2548;52.050;11.036;2023-03-01T10:55:01;8.77;;;6.40;;
5058;SDS011;2548;52.050;11.036;2023-03-01T10:57:32;10.27;;;7.45;;
5058;SDS011;2548;52.050;11.036;2023-03-01T11:00:14;12.18;;;6.97;;
5058;SDS011;2548;52.050;11.036;2023-03-01T11:02:49;13.07;;;7.13;;
5058;SDS011;2548;52.050;11.036;2023-03-01T11:05:28;8.32;;;6.07;;
5058;SDS011;2548;52.050;11.036;2023-03-01T11:07:59;13.20;;;7.22;;
5058;SDS011;2548;52.050;11.036;2023-03-01T11:10:29;8.35;;;6.03;;
5058;SDS011;2548;52.050;11.036;2023-03-01T11:13:08;10.82;;;7.10;;
5058;SDS011;2548;52.050;11.036;2023-03-01T11:15:40;6.82;;;6.13;;
5058;SDS011;2548;52.050;11.036;2023-03-01T11:18:19;7.47;;;6.25;;
5058;SDS011;2548;52.050;11.036;2023-03-01T11:20:48;9.93;;;6.80;;
5058;SDS011;2548;52.050;11.036;2023-03-01T11:23:18;10.93;;;6.22;;
5058;SDS011;2548;52.050;11.036;2023-03-01T11:25:47;9.02;;;5.85;;
5058;SDS011;2548;52.050;11.036;2023-03-01T11:28:20;8.85;;;6.88;;
5058;SDS011;2548;52.050;11.036;2023-03-01T11:30:50;6.75;;;6.05;;
5058;SDS011;2548;52.050;11.036;2023-03-01T11:33:24;9.65;;;5.97;;
5058;SDS011;2548;52.050;11.036;2023-03-01T11:36:01;17.63;;;6.25;;
5058;SDS011;2548;52.050;11.036;2023-03-01T11:38:34;9.20;;;6.50;;
5058;SDS011;2548;52.050;11.036;2023-03-01T11:41:05;6.47;;;5.20;;
5058;SDS011;2548;52.050;11.036;2023-03-01T11:43:36;9.70;;;6.30;;
5058;SDS011;2548;52.050;11.036;2023-03-01T11:52:24;9.30;;;6.13;;
5058;SDS011;2548;52.050;11.036;2023-03-01T11:55:07;6.28;;;5.68;;
5058;SDS011;2548;52.050;11.036;2023-03-01T11:57:48;8.82;;;5.68;;
5058;SDS011;2548;52.050;11.036;2023-03-01T12:00:41;11.23;;;5.63;;
5058;SDS011;2548;52.050;11.036;2023-03-01T12:03:23;8.15;;;6.00;;
5058;SDS011;2548;52.050;11.036;2023-03-01T12:06:04;6.63;;;5.47;;
5058;SDS011;2548;52.050;11.036;2023-03-01T12:08:56;7.00;;;5.15;;
5058;SDS011;2548;52.050;11.036;2023-03-01T12:11:35;7.63;;;5.65;;
5058;SDS011;2548;52.050;11.036;2023-03-01T12:14:29;9.27;;;5.78;;
5058;SDS011;2548;52.050;11.036;2023-03-01T12:20:22;6.32;;;5.40;;
5058;SDS011;2548;52.050;11.036;2023-03-01T12:23:00;6.78;;;5.90;;
5058;SDS011;2548;52.050;11.036;2023-03-01T12:25:45;9.32;;;5.70;;
5058;SDS011;2548;52.050;11.036;2023-03-01T12:28:30;7.00;;;5.22;;
5058;SDS011;2548;52.050;11.036;2023-03-01T12:31:11;7.40;;;5.22;;
5058;SDS011;2548;52.050;11.036;2023-03-01T12:33:51;11.40;;;7.53;;
5058;SDS011;2548;52.050;11.036;2023-03-01T12:36:29;7.60;;;5.63;;
5058;SDS011;2548;52.050;11.036;2023-03-01T12:39:13;9.60;;;5.80;;
5058;SDS011;2548;52.050;11.036;2023-03-01T12:41:57;5.95;;;5.15;;
5058;SDS011;2548;52.050;11.036;2023-03-01T12:44:35;8.30;;;5.72;;
5058;SDS011;2548;52.050;11.036;2023-03-01T12:47:16;7.50;;;4.53;;
5058;SDS011;2548;52.050;11.036;2023-03-01T12:49:54;9.13;;;5.65;;
5058;SDS011;2548;52.050;11.036;2023-03-01T12:52:26;7.80;;;5.78;;
5058;SDS011;2548;52.050;11.036;2023-03-01T12:54:59;9.10;;;5.60;;
5058;SDS011;2548;52.050;11.036;2023-03-01T12:57:31;9.90;;;6.00;;
5058;SDS011;2548;52.050;11.036;2023-03-01T13:00:06;6.85;;;6.10;;
5058;SDS011;2548;52.050;11.036;2023-03-01T13:02:49;10.00;;;6.18;;
5058;SDS011;2548;52.050;11.036;2023-03-01T13:05:26;10.38;;;5.47;;
5058;SDS011;2548;52.050;11.036;2023-03-01T13:08:05;8.48;;;6.70;;
5058;SDS011;2548;52.050;11.036;2023-03-01T13:10:40;20.65;;;5.60;;
5058;SDS011;2548;52.050;11.036;2023-03-01T13:13:18;7.50;;;5.65;;
5058;SDS011;2548;52.050;11.036;2023-03-01T13:15:47;9.38;;;5.85;;
5058;SDS011;2548;52.050;11.036;2023-03-01T13:18:27;13.45;;;6.03;;
5058;SDS011;2548;52.050;11.036;2023-03-01T13:20:56;5.00;;;4.32;;
5058;SDS011;2548;52.050;11.036;2023-03-01T13:23:28;6.20;;;5.60;;
5058;SDS011;2548;52.050;11.036;2023-03-01T13:26:08;6.55;;;5.95;;
5058;SDS011;2548;52.050;11.036;2023-03-01T13:28:46;6.07;;;4.95;;
5058;SDS011;2548;52.050;11.036;2023-03-01T13:34:44;4.80;;;4.40;;
5058;SDS011;2548;52.050;11.036;2023-03-01T13:37:25;6.03;;;5.43;;
5058;SDS011;2548;52.050;11.036;2023-03-01T13:40:02;5.85;;;5.25;;
5058;SDS011;2548;52.050;11.036;2023-03-01T13:42:45;7.72;;;5.35;;
5058;SDS011;2548;52.050;11.036;2023-03-01T13:45:16;5.70;;;5.10;;
5058;SDS011;2548;52.050;11.036;2023-03-01T13:48:02;6.97;;;5.28;;
5058;SDS011;2548;52.050;11.036;2023-03-01T13:50:36;6.65;;;5.45;;
5058;SDS011;2548;52.050;11.036;2023-03-01T13:53:10;5.65;;;4.90;;
5058;SDS011;2548;52.050;11.036;2023-03-01T13:55:43;6.80;;;6.05;;
5058;SDS011;2548;52.050;11.036;2023-03-01T13:58:16;7.95;;;5.15;;
5058;SDS011;2548;52.050;11.036;2023-03-01T14:00:56;5.32;;;4.82;;
5058;SDS011;2548;52.050;11.036;2023-03-01T14:03:25;6.13;;;5.47;;
5058;SDS011;2548;52.050;11.036;2023-03-01T14:05:58;5.10;;;4.60;;
5058;SDS011;2548;52.050;11.036;2023-03-01T14:08:29;6.25;;;4.95;;
5058;SDS011;2548;52.050;11.036;2023-03-01T14:11:06;6.65;;;5.30;;
5058;SDS011;2548;52.050;11.036;2023-03-01T14:14:03;6.68;;;4.97;;
5058;SDS011;2548;52.050;11.036;2023-03-01T14:16:45;5.80;;;5.30;;
5058;SDS011;2548;52.050;11.036;2023-03-01T14:19:23;5.40;;;4.55;;
5058;SDS011;2548;52.050;11.036;2023-03-01T14:21:58;7.82;;;4.55;;
5058;SDS011;2548;52.050;11.036;2023-03-01T14:24:29;5.10;;;4.60;;
5058;SDS011;2548;52.050;11.036;2023-03-01T14:27:00;5.05;;;4.53;;
5058;SDS011;2548;52.050;11.036;2023-03-01T14:29:34;4.35;;;3.95;;
5058;SDS011;2548;52.050;11.036;2023-03-01T14:32:17;5.10;;;4.28;;
5058;SDS011;2548;52.050;11.036;2023-03-01T14:34:48;5.47;;;4.15;;
5058;SDS011;2548;52.050;11.036;2023-03-01T14:37:18;4.65;;;4.10;;
5058;SDS011;2548;52.050;11.036;2023-03-01T14:39:48;4.53;;;4.13;;
5058;SDS011;2548;52.050;11.036;2023-03-01T14:42:16;5.97;;;4.40;;
5058;SDS011;2548;52.050;11.036;2023-03-01T14:44:45;6.30;;;3.70;;
5058;SDS011;2548;52.050;11.036;2023-03-01T14:47:22;5.00;;;4.40;;
5058;SDS011;2548;52.050;11.036;2023-03-01T14:49:55;6.88;;;3.78;;
5058;SDS011;2548;52.050;11.036;2023-03-01T14:52:27;4.90;;;4.60;;
5058;SDS011;2548;52.050;11.036;2023-03-01T14:55:02;4.35;;;4.05;;
5058;SDS011;2548;52.050;11.036;2023-03-01T14:57:31;6.07;;;3.90;;
5058;SDS011;2548;52.050;11.036;2023-03-01T14:59:59;5.63;;;4.20;;
5058;SDS011;2548;52.050;11.036;2023-03-01T15:02:32;4.25;;;3.92;;
5058;SDS011;2548;52.050;11.036;2023-03-01T15:05:01;31.83;;;5.05;;
5058;SDS011;2548;52.050;11.036;2023-03-01T15:07:33;5.97;;;3.88;;
5058;SDS011;2548;52.050;11.036;2023-03-01T15:10:05;4.55;;;4.15;;
5058;SDS011;2548;52.050;11.036;2023-03-01T15:12:41;14.48;;;3.70;;
5058;SDS011;2548;52.050;11.036;2023-03-01T15:15:22;5.03;;;3.50;;
5058;SDS011;2548;52.050;11.036;2023-03-01T15:17:59;7.55;;;3.83;;
5058;SDS011;2548;52.050;11.036;2023-03-01T15:20:28;5.07;;;4.00;;
5058;SDS011;2548;52.050;11.036;2023-03-01T15:23:00;6.35;;;5.07;;
5058;SDS011;2548;52.050;11.036;2023-03-01T15:25:29;3.85;;;3.55;;
5058;SDS011;2548;52.050;11.036;2023-03-01T15:27:59;12.63;;;6.85;;
5058;SDS011;2548;52.050;11.036;2023-03-01T15:33:18;68.25;;;22.17;;